createdAt,value
2018-06-03T04:10:10.587Z,99.68
2018-06-03T04:10:36.088Z,99.99
2018-06-03T04:11:01.597Z,99.77
2018-06-03T04:11:27.087Z,99.96
2018-06-03T04:11:52.581Z,99.77
2018-06-03T04:12:18.067Z,99.77
2018-06-03T04:12:43.548Z,99.96
2018-06-03T04:13:09.067Z,99.96
2018-06-03T04:13:34.514Z,99.96
2018-06-03T04:14:00.019Z,99.87
2018-06-03T04:14:25.508Z,99.77
2018-06-03T04:14:51.006Z,99.99
2018-06-03T04:15:16.513Z,99.99
2018-06-03T04:15:41.983Z,99.96
2018-06-03T04:16:07.472Z,99.87
2018-06-03T04:16:32.976Z,99.96
2018-06-03T04:16:58.454Z,99.99
2018-06-03T04:17:23.959Z,99.96
2018-06-03T04:17:49.460Z,99.77
2018-06-03T04:18:14.951Z,99.96
2018-06-03T04:18:40.420Z,99.96
2018-06-03T04:19:05.892Z,99.96
2018-06-03T04:19:31.371Z,99.96
2018-06-03T04:19:56.839Z,99.99
2018-06-03T04:20:22.376Z,99.99
2018-06-03T04:20:47.897Z,99.99
2018-06-03T04:21:13.406Z,99.99
2018-06-03T04:21:38.892Z,99.96
2018-06-03T04:22:04.396Z,99.99
2018-06-03T04:22:29.923Z,99.99
2018-06-03T04:22:55.424Z,99.99
2018-06-03T04:23:53.950Z,99.99
2018-06-03T04:24:19.459Z,99.99
2018-06-03T04:24:44.952Z,99.96
2018-06-03T04:25:10.430Z,99.99
2018-06-03T04:25:35.944Z,99.87
2018-06-03T04:26:01.423Z,99.99
2018-06-03T04:26:26.914Z,99.99
2018-06-03T04:26:52.447Z,99.96
2018-06-03T04:27:17.948Z,99.77
2018-06-03T04:27:43.452Z,99.99
2018-06-03T04:28:08.969Z,99.96
2018-06-03T04:28:34.456Z,99.99
2018-06-03T04:28:59.987Z,99.99
2018-06-03T04:29:25.472Z,99.99
2018-06-03T04:29:50.958Z,99.96
2018-06-03T04:30:16.430Z,99.92
2018-06-03T04:30:41.932Z,99.99
2018-06-03T04:31:07.438Z,99.99
2018-06-03T04:31:32.961Z,99.15
2018-06-03T04:31:58.460Z,99.34
2018-06-03T04:32:23.961Z,99.63
2018-06-03T04:32:49.462Z,99.15
2018-06-03T04:33:14.954Z,99.44
2018-06-03T04:33:40.439Z,99.54
2018-06-03T04:34:05.941Z,99.54
2018-06-03T04:34:31.438Z,99.54
2018-06-03T04:34:56.935Z,99.54
2018-06-03T04:35:22.419Z,99.82
2018-06-03T04:35:47.933Z,99.54
2018-06-03T04:36:13.464Z,99.63
2018-06-03T04:36:38.936Z,99.15
2018-06-03T04:37:04.467Z,99.54
2018-06-03T04:37:29.965Z,99.34
2018-06-03T04:37:55.457Z,99.25
2018-06-03T04:38:20.947Z,99.54
2018-06-03T04:38:46.445Z,99.15
2018-06-03T04:39:11.930Z,99.25
2018-06-03T04:39:37.424Z,99.15
2018-06-03T04:40:02.864Z,99.54
2018-06-03T04:40:28.424Z,99.63
2018-06-03T04:40:53.892Z,99.63
2018-06-03T04:41:19.390Z,99.54
2018-06-03T04:41:44.855Z,99.63
2018-06-03T04:42:10.353Z,98.86
2018-06-03T04:42:35.849Z,98.96
2018-06-03T04:43:01.351Z,98.96
2018-06-03T04:43:26.894Z,98.86
2018-06-03T04:43:52.415Z,98.96
2018-06-03T04:44:17.944Z,99.05
2018-06-03T04:44:43.448Z,98.96
2018-06-03T04:45:08.930Z,99.05
2018-06-03T04:45:34.440Z,98.86
2018-06-03T04:45:59.925Z,99.05
2018-06-03T04:46:25.409Z,98.96
2018-06-03T04:46:50.913Z,99.05
2018-06-03T04:47:16.409Z,98.96
2018-06-03T04:47:41.891Z,98.96
2018-06-03T04:48:07.422Z,98.96
2018-06-03T04:48:32.958Z,99.25
2018-06-03T04:48:58.420Z,98.96
2018-06-03T04:49:23.920Z,99.25
2018-06-03T04:49:49.418Z,98.86
2018-06-03T04:50:14.912Z,99.25
2018-06-03T04:50:40.413Z,99.34
2018-06-03T04:51:05.914Z,98.96
2018-06-03T04:51:31.396Z,98.67
2018-06-03T04:51:56.932Z,98.58
2018-06-03T04:52:22.416Z,98.67
2018-06-03T04:52:47.933Z,98.96
2018-06-03T04:53:13.420Z,98.86
2018-06-03T04:53:38.927Z,98.96
2018-06-03T04:54:04.419Z,98.67
2018-06-03T04:54:29.903Z,99.25
2018-06-03T04:54:55.430Z,99.05
2018-06-03T04:55:20.921Z,99.15
2018-06-03T04:55:46.409Z,99.25
2018-06-03T04:56:11.903Z,98.96
2018-06-03T04:56:37.404Z,99.25
2018-06-03T04:57:02.863Z,99.34
2018-06-03T04:57:28.327Z,98.96
2018-06-03T04:57:53.830Z,98.96
2018-06-03T04:58:19.305Z,98.96
2018-06-03T04:58:44.837Z,98.96
2018-06-03T04:59:10.334Z,98.77
2018-06-03T04:59:35.859Z,98.67
2018-06-03T05:00:01.360Z,98.86
2018-06-03T05:00:26.865Z,98.86
2018-06-03T05:00:52.355Z,99.05
2018-06-03T05:01:17.861Z,98.67
2018-06-03T05:01:43.342Z,98.67
2018-06-03T05:02:08.858Z,98.86
2018-06-03T05:02:34.334Z,98.96
2018-06-03T05:02:59.840Z,98.77
2018-06-03T05:03:25.342Z,99.05
2018-06-03T05:03:50.837Z,99.15
2018-06-03T05:04:16.330Z,98.67
2018-06-03T05:04:41.829Z,98.96
2018-06-03T05:05:07.339Z,98.29
2018-06-03T05:05:32.832Z,98.29
2018-06-03T05:05:58.347Z,98.67
2018-06-03T05:06:23.855Z,98.29
2018-06-03T05:06:49.359Z,99.15
2018-06-03T05:07:14.890Z,98.96
2018-06-03T05:07:40.385Z,98.29
2018-06-03T05:08:33.345Z,98.58
2018-06-03T05:08:58.846Z,98.48
2018-06-03T05:09:24.349Z,98.1
2018-06-03T05:09:49.894Z,98.38
2018-06-03T05:10:53.024Z,98.29
2018-06-03T05:11:18.487Z,98.19
2018-06-03T05:11:43.985Z,98.29
2018-06-03T05:12:09.472Z,98.48
2018-06-03T05:12:34.964Z,98.29
2018-06-03T05:13:00.464Z,98.19
2018-06-03T05:13:25.964Z,98.38
2018-06-03T05:13:51.448Z,98.48
2018-06-03T05:14:16.946Z,98.38
2018-06-03T05:14:42.445Z,98.38
2018-06-03T05:15:07.946Z,98.19
2018-06-03T05:15:33.449Z,98.29
2018-06-03T05:15:58.940Z,98.29
2018-06-03T05:16:24.416Z,98.29
2018-06-03T05:16:49.943Z,98.48
2018-06-03T05:17:15.389Z,98.19
2018-06-03T05:17:40.899Z,98.67
2018-06-03T05:18:54.714Z,98.67
2018-06-03T05:19:20.217Z,98.29
2018-06-03T05:19:45.761Z,98.48
2018-06-03T05:20:44.253Z,98.34
2018-06-03T05:21:09.783Z,98.24
2018-06-03T05:21:35.291Z,98.43
2018-06-03T05:22:00.826Z,98.34
2018-06-03T05:22:26.284Z,98.29
2018-06-03T05:22:51.795Z,98.24
2018-06-03T05:23:17.285Z,98.43
2018-06-03T05:23:42.797Z,98.48
2018-06-03T05:24:08.295Z,98.34
2018-06-03T05:24:33.814Z,98.72
2018-06-03T05:24:59.296Z,98.43
2018-06-03T05:25:24.813Z,98.53
2018-06-03T05:25:50.265Z,98.43
2018-06-03T05:26:15.725Z,98.34
2018-06-03T05:26:41.228Z,98.53
2018-06-03T05:27:06.753Z,98.53
2018-06-03T05:27:32.279Z,98.72
2018-06-03T05:27:57.838Z,97.86
2018-06-03T05:28:23.308Z,98.14
2018-06-03T05:28:48.808Z,98.43
2018-06-03T05:29:14.338Z,97.57
2018-06-03T05:29:39.867Z,97.66
2018-06-03T05:30:05.353Z,97.96
2018-06-03T05:30:30.859Z,97.91
2018-06-03T05:30:56.396Z,97.86
2018-06-03T05:31:21.886Z,97.57
2018-06-03T05:31:47.374Z,97.57
2018-06-03T05:32:12.873Z,97.66
2018-06-03T05:32:38.360Z,98.05
2018-06-03T05:33:03.840Z,98.24
2018-06-03T05:33:57.293Z,98.05
2018-06-03T05:34:22.789Z,98.14
2018-06-03T05:34:48.303Z,98.14
2018-06-03T05:35:13.826Z,97.86
2018-06-03T05:35:39.320Z,98.43
2018-06-03T05:36:04.824Z,98.14
2018-06-03T05:36:30.327Z,98.43
2018-06-03T05:36:55.816Z,98.24
2018-06-03T05:37:21.305Z,97.66
2018-06-03T05:37:46.797Z,97.57
2018-06-03T05:38:12.300Z,97.38
2018-06-03T05:38:37.814Z,97.38
2018-06-03T05:39:03.305Z,97.86
2018-06-03T05:39:28.810Z,97.57
2018-06-03T05:39:54.324Z,97.76
2018-06-03T05:40:19.826Z,97.96
2018-06-03T05:40:45.295Z,97.86
2018-06-03T05:41:10.792Z,97.86
2018-06-03T05:41:36.294Z,97.47
2018-06-03T05:42:01.772Z,97.66
2018-06-03T05:42:27.369Z,98.05
2018-06-03T05:42:52.771Z,98.24
2018-06-03T05:43:18.270Z,98.14
2018-06-03T05:43:43.767Z,97.66
2018-06-03T05:44:09.313Z,97.47
2018-06-03T05:44:34.794Z,97.57
2018-06-03T05:45:00.271Z,97.47
2018-06-03T05:45:25.779Z,97.47
2018-06-03T05:45:51.301Z,97.66
2018-06-03T05:46:16.790Z,97.86
2018-06-03T05:46:42.276Z,97.96
2018-06-03T05:47:07.842Z,97.66
2018-06-03T05:47:33.338Z,97.57
2018-06-03T05:47:58.885Z,97.57
2018-06-03T05:48:24.455Z,97.66
2018-06-03T05:48:49.960Z,97.66
2018-06-03T05:49:15.458Z,97.76
2018-06-03T05:49:40.965Z,97.57
2018-06-03T05:50:06.488Z,97.57
2018-06-03T05:50:31.989Z,97.62
2018-06-03T05:50:57.479Z,97.52
2018-06-03T05:51:23.006Z,97.28
2018-06-03T05:51:48.459Z,97.14
2018-06-03T05:52:13.977Z,97.24
2018-06-03T05:52:39.490Z,97.14
2018-06-03T05:53:04.993Z,97.33
2018-06-03T05:53:30.495Z,97.14
2018-06-03T05:53:55.974Z,97.62
2018-06-03T05:54:21.467Z,97.42
2018-06-03T05:54:46.998Z,97.62
2018-06-03T05:55:12.458Z,97.24
2018-06-03T05:55:37.995Z,97.04
2018-06-03T05:56:03.530Z,97.14
2018-06-03T05:56:29.004Z,96.94
2018-06-03T05:56:54.527Z,97.24
2018-06-03T05:57:19.975Z,97.04
2018-06-03T05:57:45.432Z,96.94
2018-06-03T05:58:10.944Z,96.66
2018-06-03T05:58:36.444Z,96.94
2018-06-03T05:59:01.950Z,97.14
2018-06-03T05:59:27.467Z,97.14
2018-06-03T05:59:52.948Z,97.24
2018-06-03T06:00:18.483Z,96.66
2018-06-03T06:00:44.134Z,97.14
2018-06-03T06:01:09.634Z,96.94
2018-06-03T06:01:35.117Z,96.94
2018-06-03T06:02:00.592Z,96.94
2018-06-03T06:02:26.092Z,96.85
2018-06-03T06:02:51.681Z,96.75
2018-06-03T06:03:17.146Z,96.85
2018-06-03T06:03:42.703Z,96.94
2018-06-03T06:04:08.225Z,97.04
2018-06-03T06:04:33.705Z,97.14
2018-06-03T06:04:59.212Z,96.66
2018-06-03T06:05:24.697Z,96.66
2018-06-03T06:05:50.216Z,96.85
2018-06-03T06:06:15.729Z,97.04
2018-06-03T06:06:41.215Z,97.14
2018-06-03T06:07:06.743Z,97.33
2018-06-03T06:07:32.234Z,96.94
2018-06-03T06:07:57.835Z,96.85
2018-06-03T06:08:23.431Z,96.66
2018-06-03T06:08:48.908Z,96.85
2018-06-03T06:09:14.400Z,96.75
2018-06-03T06:09:39.897Z,96.85
2018-06-03T06:10:05.390Z,97.24
2018-06-03T06:10:31.068Z,97.24
2018-06-03T06:10:56.554Z,97.42
2018-06-03T06:11:22.076Z,97.42
2018-06-03T06:11:47.558Z,97.24
2018-06-03T06:12:13.083Z,96.47
2018-06-03T06:12:38.628Z,96.51
2018-06-03T06:13:04.099Z,96.75
2018-06-03T06:13:29.604Z,96.27
2018-06-03T06:13:55.185Z,96.66
2018-06-03T06:14:20.680Z,96.47
2018-06-03T06:14:46.124Z,96.47
2018-06-03T06:15:11.626Z,95.7
2018-06-03T06:15:37.148Z,95.65
2018-06-03T06:16:02.623Z,96.61
2018-06-03T06:16:28.120Z,95.98
2018-06-03T06:16:53.635Z,95.7
2018-06-03T06:17:19.090Z,95.7
2018-06-03T06:17:44.573Z,95.84
2018-06-03T06:18:10.065Z,95.6
2018-06-03T06:18:35.549Z,95.89
2018-06-03T06:19:01.035Z,95.89
2018-06-03T06:19:26.516Z,95.6
2018-06-03T06:19:52.047Z,95.5
2018-06-03T06:20:17.566Z,95.55
2018-06-03T06:20:43.082Z,95.84
2018-06-03T06:21:08.558Z,95.84
2018-06-03T06:21:34.041Z,95.84
2018-06-03T06:21:59.531Z,95.94
2018-06-03T06:22:25.032Z,95.89
2018-06-03T06:22:50.543Z,95.94
2018-06-03T06:23:16.070Z,95.17
2018-06-03T06:23:41.560Z,96.13
2018-06-03T06:24:07.052Z,95.79
2018-06-03T06:24:32.535Z,95.45
2018-06-03T06:24:58.013Z,95.26
2018-06-03T06:25:23.516Z,95.65
2018-06-03T06:25:49.009Z,95.65
2018-06-03T06:26:14.509Z,95.65
2018-06-03T06:26:40.024Z,95.65
2018-06-03T06:27:05.509Z,95.65
2018-06-03T06:27:30.996Z,95.65
2018-06-03T06:27:56.489Z,95.36
2018-06-03T06:28:21.996Z,95.55
2018-06-03T06:28:47.469Z,95.65
2018-06-03T06:29:12.975Z,94.78
2018-06-03T06:29:38.473Z,95.26
2018-06-03T06:30:03.976Z,94.98
2018-06-03T06:30:29.499Z,95.26
2018-06-03T06:30:55.006Z,95.17
2018-06-03T06:31:20.503Z,94.98
2018-06-03T06:31:46.016Z,94.73
2018-06-03T06:32:11.545Z,94.64
2018-06-03T06:32:37.089Z,94.54
2018-06-03T06:33:02.594Z,94.59
2018-06-03T06:33:28.086Z,94.64
2018-06-03T06:33:53.584Z,94.64
2018-06-03T06:34:19.132Z,94.83
2018-06-03T06:35:12.588Z,94.73
2018-06-03T06:35:38.071Z,94.35
2018-06-03T06:36:03.578Z,94.25
2018-06-03T06:36:29.169Z,94.68
2018-06-03T06:36:54.593Z,94.01
2018-06-03T06:37:20.100Z,93.72
2018-06-03T06:37:45.624Z,93.91
2018-06-03T06:38:11.091Z,93.43
2018-06-03T06:38:36.618Z,93.91
2018-06-03T06:39:02.160Z,93.05
2018-06-03T06:39:27.722Z,92.95
2018-06-03T06:39:53.201Z,93.29
2018-06-03T06:40:18.730Z,93.09
2018-06-03T06:40:44.225Z,92.52
2018-06-03T06:41:09.688Z,92.71
2018-06-03T06:41:35.207Z,91.84
2018-06-03T06:42:00.697Z,91.36
2018-06-03T06:42:26.181Z,90.69
2018-06-03T06:42:51.705Z,91.21
2018-06-03T06:43:17.197Z,90.34
2018-06-03T06:43:42.686Z,90.73
2018-06-03T06:44:08.193Z,90.06
2018-06-03T06:44:33.677Z,89.67
2018-06-03T06:44:59.156Z,88.9
2018-06-03T06:45:24.683Z,89.09
2018-06-03T06:45:50.185Z,88.9
2018-06-03T06:46:15.679Z,89.14
2018-06-03T06:46:41.190Z,88.85
2018-06-03T06:47:06.676Z,88.56
2018-06-03T06:47:32.182Z,88.37
2018-06-03T06:47:57.694Z,87.7
2018-06-03T06:48:23.209Z,87.3
2018-06-03T06:48:48.841Z,87.4
2018-06-03T06:49:14.219Z,86.92
2018-06-03T06:49:39.738Z,87.02
2018-06-03T06:50:05.280Z,86.92
2018-06-03T06:50:30.781Z,86.82
2018-06-03T06:50:56.331Z,86.63
2018-06-03T06:51:21.827Z,86.68
2018-06-03T06:51:47.336Z,86.1
2018-06-03T06:52:12.860Z,86.05
2018-06-03T06:52:38.355Z,85.52
2018-06-03T06:53:03.881Z,86.19
2018-06-03T06:53:29.429Z,86.48
2018-06-03T06:53:54.957Z,86.39
2018-06-03T06:54:20.443Z,85.81
2018-06-03T06:54:45.957Z,85.71
2018-06-03T06:55:11.458Z,85.13
2018-06-03T06:55:36.967Z,85.23
2018-06-03T06:56:02.440Z,85.61
2018-06-03T06:56:27.979Z,85.33
2018-06-03T06:56:53.433Z,85.33
2018-06-03T06:57:18.977Z,85.42
2018-06-03T06:57:44.536Z,85.13
2018-06-03T06:58:10.023Z,84.75
2018-06-03T06:58:35.548Z,85.13
2018-06-03T06:59:01.070Z,84.36
2018-06-03T06:59:26.669Z,83.98
2018-06-03T06:59:52.269Z,84.46
2018-06-03T07:00:17.850Z,83.98
2018-06-03T07:00:43.315Z,84.27
2018-06-03T07:01:08.792Z,84.27
2018-06-03T07:02:17.549Z,84.22
2018-06-03T07:02:43.039Z,84.12
2018-06-03T07:03:08.547Z,84.27
2018-06-03T07:03:34.051Z,84.17
2018-06-03T07:03:59.522Z,83.74
2018-06-03T07:04:25.020Z,84.03
2018-06-03T07:04:50.483Z,83.78
2018-06-03T07:05:15.999Z,83.98
2018-06-03T07:05:41.498Z,84.17
2018-06-03T07:06:07.003Z,84.27
2018-06-03T07:06:32.565Z,82.97
2018-06-03T07:06:57.972Z,82.68
2018-06-03T07:07:23.474Z,82.87
2018-06-03T07:07:49.015Z,83.3
2018-06-03T07:08:14.517Z,83.45
2018-06-03T07:08:39.995Z,83.59
2018-06-03T07:09:05.498Z,83.74
2018-06-03T07:09:30.992Z,83.88
2018-06-03T07:09:56.511Z,83.69
2018-06-03T07:10:21.998Z,83.07
2018-06-03T07:10:47.507Z,83.16
2018-06-03T07:11:13.019Z,82.68
2018-06-03T07:11:38.488Z,82.39
2018-06-03T07:12:03.977Z,82.49
2018-06-03T07:12:29.464Z,82.49
2018-06-03T07:12:54.962Z,82.2
2018-06-03T07:13:20.478Z,82.49
2018-06-03T07:13:45.967Z,82.2
2018-06-03T07:14:11.463Z,82.49
2018-06-03T07:14:36.932Z,82.39
2018-06-03T07:15:02.426Z,82.39
2018-06-03T07:15:27.914Z,82.29
2018-06-03T07:15:53.412Z,82.49
2018-06-03T07:16:18.902Z,82.49
2018-06-03T07:16:44.363Z,82.39
2018-06-03T07:17:09.900Z,82.87
2018-06-03T07:17:35.380Z,82.29
2018-06-03T07:18:00.911Z,82.68
2018-06-03T07:18:26.379Z,82.49
2018-06-03T07:18:51.895Z,83.55
2018-06-03T07:19:17.387Z,83.55
2018-06-03T07:19:42.863Z,83.07
2018-06-03T07:20:08.380Z,83.07
2018-06-03T07:20:33.867Z,83.16
2018-06-03T07:20:59.330Z,83.07
2018-06-03T07:21:24.890Z,83.55
2018-06-03T07:21:50.385Z,83.94
2018-06-03T07:22:15.867Z,83.74
2018-06-03T07:22:41.354Z,84.12
2018-06-03T07:23:06.873Z,84.03
2018-06-03T07:23:32.388Z,83.84
2018-06-03T07:23:57.888Z,83.94
2018-06-03T07:24:23.403Z,83.74
2018-06-03T07:24:48.911Z,84.12
2018-06-03T07:25:14.397Z,84.12
2018-06-03T07:25:39.936Z,84.03
2018-06-03T07:26:05.455Z,83.84
2018-06-03T07:26:30.941Z,84.12
2018-06-03T07:26:56.408Z,84.32
2018-06-03T07:27:21.917Z,84.32
2018-06-03T07:27:47.405Z,84.32
2018-06-03T07:28:13.183Z,83.84
2018-06-03T07:28:38.893Z,83.94
2018-06-03T07:29:04.395Z,83.84
2018-06-03T07:29:29.899Z,83.84
2018-06-03T07:29:55.381Z,84.03
2018-06-03T07:30:20.894Z,83.74
2018-06-03T07:30:46.378Z,83.84
2018-06-03T07:31:11.932Z,83.84
2018-06-03T07:31:37.426Z,83.64
2018-06-03T07:32:02.985Z,83.45
2018-06-03T07:32:28.422Z,83.55
2018-06-03T07:32:53.893Z,83.07
2018-06-03T07:33:19.398Z,83.16
2018-06-03T07:33:44.886Z,83.16
2018-06-03T07:34:48.478Z,83.07
2018-06-03T07:35:13.986Z,83.26
2018-06-03T07:35:39.507Z,83.16
2018-06-03T07:36:04.992Z,82.87
2018-06-03T07:36:30.492Z,83.36
2018-06-03T07:36:55.991Z,82.92
2018-06-03T07:37:21.519Z,82.87
2018-06-03T07:37:47.062Z,82.78
2018-06-03T07:38:12.505Z,82.43
2018-06-03T07:38:37.999Z,82.53
2018-06-03T07:39:03.507Z,82.34
2018-06-03T07:39:29.003Z,81.95
2018-06-03T07:39:54.485Z,81.66
2018-06-03T07:40:19.966Z,81.66
2018-06-03T07:40:45.469Z,81.57
2018-06-03T07:41:10.944Z,81.37
2018-06-03T07:41:36.421Z,81.76
2018-06-03T07:42:01.922Z,81.66
2018-06-03T07:42:27.418Z,81.76
2018-06-03T07:42:53.085Z,81.76
2018-06-03T07:43:18.586Z,81.37
2018-06-03T07:43:44.123Z,80.16
2018-06-03T07:44:09.612Z,80.45
2018-06-03T07:44:35.129Z,80.26
2018-06-03T07:45:00.648Z,80.06
2018-06-03T07:45:26.121Z,80.16
2018-06-03T07:45:51.675Z,80.26
2018-06-03T07:46:43.699Z,80.54
2018-06-03T07:47:10.667Z,80.89
2018-06-03T07:47:36.311Z,80.69
2018-06-03T07:48:02.217Z,80.6
2018-06-03T07:48:29.614Z,80.6
2018-06-03T07:48:54.696Z,80.41
2018-06-03T07:49:20.815Z,80.79
2018-06-03T07:49:46.882Z,80.69
2018-06-03T07:50:12.928Z,80.89
2018-06-03T07:50:39.270Z,80.6
2018-06-03T07:51:05.287Z,80.89
2018-06-03T07:51:30.881Z,80.41
2018-06-03T07:51:56.688Z,80.69
2018-06-03T07:52:22.543Z,80.89
2018-06-03T07:52:48.470Z,80.12
2018-06-03T07:53:14.384Z,80.51
2018-06-03T07:53:39.955Z,80.12
2018-06-03T07:54:05.653Z,79.83
2018-06-03T07:54:31.342Z,80.22
2018-06-03T07:54:56.839Z,80.56
2018-06-03T07:55:22.351Z,80.6
2018-06-03T07:55:47.815Z,81.18
2018-06-03T07:56:13.307Z,80.6
2018-06-03T07:56:38.842Z,80.66
2018-06-03T07:57:04.274Z,80.79
2018-06-03T07:57:29.769Z,80.76
2018-06-03T07:57:55.273Z,80.69
2018-06-03T07:58:20.709Z,80.46
2018-06-03T07:58:46.275Z,80.27
2018-06-03T07:59:11.689Z,80.27
2018-06-03T07:59:37.237Z,80.66
2018-06-03T08:00:02.762Z,80.46
2018-06-03T08:00:28.169Z,80.56
2018-06-03T08:00:53.739Z,80.37
2018-06-03T08:01:19.208Z,80.46
2018-06-03T08:01:44.657Z,80.46
2018-06-03T08:02:10.163Z,80.76
2018-06-03T08:02:35.696Z,80.51
2018-06-03T08:03:01.189Z,80.85
2018-06-03T08:03:26.713Z,80.69
2018-06-03T08:03:52.181Z,80.76
2018-06-03T08:04:17.649Z,80.27
2018-06-03T08:04:43.154Z,80.89
2018-06-03T08:05:08.690Z,80.6
2018-06-03T08:05:34.180Z,80.37
2018-06-03T08:05:59.719Z,80.89
2018-06-03T08:06:25.223Z,80.51
2018-06-03T08:06:50.707Z,80.89
2018-06-03T08:07:16.219Z,80.51
2018-06-03T08:07:41.708Z,80.69
2018-06-03T08:08:07.205Z,80.51
2018-06-03T08:08:32.683Z,80.41
2018-06-03T08:08:58.172Z,81.09
2018-06-03T08:09:23.617Z,80.89
2018-06-03T08:09:49.175Z,80.69
2018-06-03T08:10:14.675Z,80.41
2018-06-03T08:10:40.185Z,80.31
2018-06-03T08:11:05.692Z,80.6
2018-06-03T08:11:31.186Z,81.27
2018-06-03T08:11:56.704Z,81.18
2018-06-03T08:12:22.193Z,81.47
2018-06-03T08:12:47.719Z,81.18
2018-06-03T08:13:13.275Z,81.47
2018-06-03T08:13:38.764Z,80.89
2018-06-03T08:14:04.249Z,81.09
2018-06-03T08:14:29.738Z,80.41
2018-06-03T08:14:55.227Z,80.41
2018-06-03T08:15:20.692Z,80.79
2018-06-03T08:15:46.202Z,80.69
2018-06-03T08:16:11.701Z,80.89
2018-06-03T08:16:37.222Z,80.89
2018-06-03T08:17:02.674Z,80.6
2018-06-03T08:17:28.187Z,80.22
2018-06-03T08:17:53.672Z,80.02
2018-06-03T08:18:19.190Z,80.22
2018-06-03T08:18:44.673Z,80.99
2018-06-03T08:19:10.202Z,80.89
2018-06-03T08:19:35.674Z,80.6
2018-06-03T08:20:01.186Z,80.51
2018-06-03T08:20:27.032Z,80.69
2018-06-03T08:20:52.531Z,81.27
2018-06-03T08:21:18.043Z,81.27
2018-06-03T08:21:43.522Z,80.89
2018-06-03T08:22:09.004Z,80.89
2018-06-03T08:22:34.499Z,80.79
2018-06-03T08:22:59.975Z,80.99
2018-06-03T08:23:25.472Z,81.09
2018-06-03T08:23:50.961Z,80.89
2018-06-03T08:24:16.492Z,80.51
2018-06-03T08:24:41.993Z,80.51
2018-06-03T08:25:07.504Z,80.51
2018-06-03T08:25:33.009Z,80.89
2018-06-03T08:25:58.504Z,80.51
2018-06-03T08:26:23.993Z,80.51
2018-06-03T08:26:49.521Z,80.6
2018-06-03T08:27:15.046Z,80.51
2018-06-03T08:27:40.560Z,80.12
2018-06-03T08:28:06.048Z,80.02
2018-06-03T08:28:31.585Z,80.22
2018-06-03T08:28:57.096Z,80.31
2018-06-03T08:29:22.601Z,80.22
2018-06-03T08:29:48.210Z,80.6
2018-06-03T08:30:13.907Z,80.12
2018-06-03T08:30:39.371Z,80.12
2018-06-03T08:31:04.906Z,80.12
2018-06-03T08:31:30.457Z,79.93
2018-06-03T08:31:55.995Z,80.02
2018-06-03T08:32:21.531Z,79.54
2018-06-03T08:32:47.011Z,79.64
2018-06-03T08:33:12.779Z,79.44
2018-06-03T08:33:38.225Z,79.83
2018-06-03T08:34:03.776Z,79.25
2018-06-03T08:34:29.302Z,79.93
2018-06-03T08:34:54.820Z,79.74
2018-06-03T08:35:20.304Z,79.74
2018-06-03T08:35:45.831Z,79.35
2018-06-03T08:36:11.320Z,79.64
2018-06-03T08:36:36.812Z,79.83
2018-06-03T08:37:02.352Z,79.64
2018-06-03T08:37:28.037Z,80.22
2018-06-03T08:37:53.612Z,79.93
2018-06-03T08:38:19.091Z,79.35
2018-06-03T08:38:44.588Z,79.54
2018-06-03T08:39:10.097Z,79.54
2018-06-03T08:39:35.650Z,79.54
2018-06-03T08:40:01.160Z,80.12
2018-06-03T08:40:26.746Z,79.93
2018-06-03T08:40:52.333Z,80.12
2018-06-03T08:41:17.866Z,80.12
2018-06-03T08:41:43.291Z,79.6
2018-06-03T08:42:08.822Z,79.64
2018-06-03T08:42:34.319Z,79.89
2018-06-03T08:42:59.829Z,80.31
2018-06-03T08:43:25.327Z,80.22
2018-06-03T08:43:50.821Z,79.89
2018-06-03T08:44:16.370Z,80.46
2018-06-03T08:44:41.905Z,80.66
2018-06-03T08:45:07.394Z,80.85
2018-06-03T08:45:32.897Z,80.56
2018-06-03T08:45:58.411Z,80.46
2018-06-03T08:46:23.887Z,80.94
2018-06-03T08:46:49.398Z,80.66
2018-06-03T08:47:14.867Z,80.27
2018-06-03T08:47:40.373Z,79.98
2018-06-03T08:48:05.869Z,80.56
2018-06-03T08:48:31.368Z,80.76
2018-06-03T08:48:56.870Z,80.56
2018-06-03T08:49:22.362Z,81.04
2018-06-03T08:49:47.850Z,80.37
2018-06-03T08:50:13.430Z,81.14
2018-06-03T08:50:38.858Z,81.24
2018-06-03T08:51:04.367Z,81.14
2018-06-03T08:51:29.868Z,80.76
2018-06-03T08:51:55.372Z,80.66
2018-06-03T08:52:20.873Z,80.27
2018-06-03T08:52:46.356Z,80.37
2018-06-03T08:53:11.877Z,80.85
2018-06-03T08:53:37.406Z,80.46
2018-06-03T08:54:02.899Z,81.14
2018-06-03T08:54:28.396Z,80.56
2018-06-03T08:54:53.909Z,80.85
2018-06-03T08:55:19.421Z,81.24
2018-06-03T08:55:44.920Z,81.24
2018-06-03T08:56:10.420Z,81.24
2018-06-03T08:56:35.917Z,81.52
2018-06-03T08:57:01.424Z,81.62
2018-06-03T08:57:26.893Z,81.52
2018-06-03T08:57:52.444Z,81.52
2018-06-03T08:58:17.911Z,81.43
2018-06-03T08:58:43.405Z,82.2
2018-06-03T08:59:08.902Z,81.62
2018-06-03T08:59:34.427Z,81.24
2018-06-03T08:59:59.919Z,81.43
2018-06-03T09:00:25.444Z,81.72
2018-06-03T09:00:50.893Z,81.43
2018-06-03T09:01:16.405Z,81.72
2018-06-03T09:01:41.980Z,81.72
2018-06-03T09:02:07.484Z,81.14
2018-06-03T09:02:33.000Z,81.37
2018-06-03T09:02:58.519Z,80.76
2018-06-03T09:03:24.056Z,80.99
2018-06-03T09:03:49.641Z,80.66
2018-06-03T09:04:15.157Z,80.31
2018-06-03T09:04:40.660Z,80.51
2018-06-03T09:05:06.172Z,80.89
2018-06-03T09:05:31.682Z,80.46
2018-06-03T09:05:57.274Z,80.56
2018-06-03T09:06:22.779Z,80.6
2018-06-03T09:06:48.285Z,80.89
2018-06-03T09:07:13.827Z,80.51
2018-06-03T09:07:39.343Z,80.89
2018-06-03T09:08:04.857Z,80.89
2018-06-03T09:08:30.414Z,80.22
2018-06-03T09:08:55.920Z,80.12
2018-06-03T09:09:49.414Z,80.22
2018-06-03T09:10:14.904Z,80.02
2018-06-03T09:10:40.422Z,79.83
2018-06-03T09:11:05.882Z,80.31
2018-06-03T09:11:31.402Z,80.69
2018-06-03T09:11:56.898Z,80.74
2018-06-03T09:12:22.410Z,80.54
2018-06-03T09:12:48.004Z,80.16
2018-06-03T09:13:13.539Z,79.77
2018-06-03T09:13:39.055Z,79.29
2018-06-03T09:14:04.752Z,79.68
2018-06-03T09:14:30.199Z,79.77
2018-06-03T09:14:55.913Z,79.1
2018-06-03T09:15:21.482Z,78.52
2018-06-03T09:15:46.978Z,77.94
2018-06-03T09:16:12.592Z,78.42
2018-06-03T09:16:38.049Z,78.52
2018-06-03T09:17:03.638Z,78.52
2018-06-03T09:17:29.097Z,78.23
2018-06-03T09:17:54.703Z,77.94
2018-06-03T09:18:20.247Z,77.84
2018-06-03T09:18:45.728Z,77.84
2018-06-03T09:19:11.189Z,77.84
2018-06-03T09:19:36.695Z,78.81
2018-06-03T09:20:02.244Z,78.23
2018-06-03T09:20:27.902Z,77.94
2018-06-03T09:20:53.507Z,78.33
2018-06-03T09:21:18.983Z,77.94
2018-06-03T09:21:44.466Z,78.03
2018-06-03T09:22:10.042Z,77.84
2018-06-03T09:22:35.524Z,78.23
2018-06-03T09:23:01.030Z,78.29
2018-06-03T09:23:26.719Z,78.67
2018-06-03T09:23:52.414Z,78.67
2018-06-03T09:24:17.934Z,78.48
2018-06-03T09:24:43.561Z,78.67
2018-06-03T09:25:09.177Z,78.48
2018-06-03T09:25:34.624Z,78.77
2018-06-03T09:26:00.191Z,79.06
2018-06-03T09:26:25.791Z,79.06
2018-06-03T09:26:51.249Z,79.16
2018-06-03T09:27:16.753Z,79.25
2018-06-03T09:27:42.339Z,79.54
2018-06-03T09:28:07.921Z,80.02
2018-06-03T09:28:33.343Z,80.12
2018-06-03T09:28:58.855Z,80.66
2018-06-03T09:29:24.383Z,80.46
2018-06-03T09:29:50.013Z,80.76
2018-06-03T09:30:15.516Z,80.46
2018-06-03T09:30:41.042Z,80.66
2018-06-03T09:31:06.674Z,80.56
2018-06-03T09:31:32.143Z,80.18
2018-06-03T09:31:57.633Z,80.46
2018-06-03T09:32:23.101Z,80.66
2018-06-03T09:32:48.701Z,80.94
2018-06-03T09:33:14.268Z,81.52
2018-06-03T09:33:39.784Z,81.62
2018-06-03T09:34:05.257Z,81.43
2018-06-03T09:34:30.727Z,81.62
2018-06-03T09:34:56.292Z,81.43
2018-06-03T09:35:21.774Z,81.24
2018-06-03T09:35:47.279Z,81.24
2018-06-03T09:36:12.767Z,81.43
2018-06-03T09:36:38.267Z,81.52
2018-06-03T09:37:03.793Z,81.24
2018-06-03T09:37:29.290Z,81.52
2018-06-03T09:38:27.807Z,80.62
2018-06-03T09:38:53.328Z,80.66
2018-06-03T09:39:18.828Z,80.56
2018-06-03T09:39:44.315Z,80.46
2018-06-03T09:40:09.794Z,80.46
2018-06-03T09:40:35.314Z,80.37
2018-06-03T09:41:00.826Z,80.56
2018-06-03T09:41:26.288Z,80.56
2018-06-03T09:41:51.791Z,80.76
2018-06-03T09:42:17.288Z,80.27
2018-06-03T09:42:42.769Z,79.98
2018-06-03T09:43:08.269Z,80.18
2018-06-03T09:43:33.797Z,79.89
2018-06-03T09:43:59.290Z,79.98
2018-06-03T09:44:24.821Z,80.18
2018-06-03T09:44:50.299Z,79.98
2018-06-03T09:45:15.795Z,79.98
2018-06-03T09:45:41.297Z,80.37